createdAt,value
2022-12-18T00:00:43.527Z,98.72
2022-12-18T00:01:43.626Z,98.72
2022-12-18T00:02:43.565Z,98.72
2022-12-18T00:03:44.013Z,98.72
2022-12-18T00:04:43.543Z,98.72
2022-12-18T00:05:43.490Z,98.61
2022-12-18T00:06:43.498Z,98.40
2022-12-18T00:07:43.461Z,98.19
2022-12-18T00:08:43.464Z,98.02
2022-12-18T00:09:43.741Z,98.02
2022-12-18T00:10:43.411Z,98.13
2022-12-18T00:11:43.418Z,98.34
2022-12-18T00:12:43.421Z,98.60
2022-12-18T00:13:43.414Z,98.81
2022-12-18T00:14:43.377Z,98.91
2022-12-18T00:15:43.453Z,99.02
2022-12-18T00:16:43.414Z,99.13
2022-12-18T00:17:43.367Z,99.44
2022-12-18T00:18:43.371Z,99.65
2022-12-18T00:19:43.321Z,99.76
2022-12-18T00:20:43.340Z,99.87
2022-12-18T00:21:43.363Z,99.99
2022-12-18T00:22:43.306Z,99.99
2022-12-18T00:23:43.631Z,99.99
2022-12-18T00:24:43.280Z,99.99
2022-12-18T00:25:43.258Z,99.99
2022-12-18T00:26:43.286Z,99.99
2022-12-18T00:27:43.264Z,99.99
2022-12-18T00:28:43.331Z,99.99
2022-12-18T00:29:43.232Z,99.99
2022-12-18T00:30:43.264Z,99.99
2022-12-18T00:31:43.318Z,99.99
2022-12-18T00:32:43.226Z,99.99
2022-12-18T00:33:43.184Z,99.99
2022-12-18T00:34:43.177Z,99.99
2022-12-18T00:35:43.181Z,99.99
2022-12-18T00:36:43.196Z,99.99
2022-12-18T00:37:43.148Z,99.99
2022-12-18T00:38:43.167Z,99.99
2022-12-18T00:39:43.135Z,99.99
2022-12-18T00:40:43.142Z,99.71
2022-12-18T00:41:43.104Z,99.29
2022-12-18T00:42:43.119Z,99.08
2022-12-18T00:43:43.226Z,99.02
2022-12-18T00:44:43.076Z,98.87
2022-12-18T00:45:49.924Z,98.81
2022-12-18T00:46:43.792Z,98.81
2022-12-18T00:47:43.685Z,98.91
2022-12-18T00:48:43.063Z,99.02
2022-12-18T00:49:43.030Z,99.13
2022-12-18T00:50:43.015Z,99.23
2022-12-18T00:51:43.027Z,99.44
2022-12-18T00:52:43.025Z,99.44
2022-12-18T00:53:42.993Z,99.23
2022-12-18T00:54:42.977Z,99.19
2022-12-18T00:55:42.997Z,99.08
2022-12-18T00:56:49.270Z,99.19
2022-12-18T00:57:42.967Z,99.19
2022-12-18T00:58:42.971Z,99.19
2022-12-18T00:59:42.931Z,99.08
2022-12-18T01:00:42.981Z,98.76
2022-12-18T01:01:43.103Z,98.61
2022-12-18T01:02:43.149Z,98.40
2022-12-18T01:03:42.914Z,98.08
2022-12-18T01:04:42.892Z,97.66
2022-12-18T01:05:42.882Z,97.24
2022-12-18T01:06:42.863Z,96.92
2022-12-18T01:07:42.871Z,96.71
2022-12-18T01:08:42.848Z,96.39
2022-12-18T01:09:42.851Z,96.39
2022-12-18T01:10:42.829Z,96.44
2022-12-18T01:11:42.843Z,96.54
2022-12-18T01:12:42.808Z,96.86
2022-12-18T01:13:42.822Z,97.01
2022-12-18T01:14:42.788Z,97.43
2022-12-18T01:15:42.786Z,97.75
2022-12-18T01:16:42.888Z,98.11
2022-12-18T01:17:42.763Z,98.43
2022-12-18T01:18:42.757Z,98.64
2022-12-18T01:19:42.753Z,98.74
2022-12-18T01:20:42.732Z,98.96
2022-12-18T01:21:42.771Z,99.13
2022-12-18T01:22:42.709Z,99.23
2022-12-18T01:23:42.881Z,99.33
2022-12-18T01:24:42.687Z,99.23
2022-12-18T01:25:42.685Z,99.02
2022-12-18T01:26:42.730Z,98.60
2022-12-18T01:27:42.681Z,98.17
2022-12-18T01:28:42.647Z,97.96
2022-12-18T01:29:42.643Z,97.96
2022-12-18T01:30:42.641Z,98.00
2022-12-18T01:31:42.752Z,98.00
2022-12-18T01:32:42.609Z,98.00
2022-12-18T01:33:42.602Z,98.00
2022-12-18T01:34:42.594Z,98.00
2022-12-18T01:35:42.585Z,98.26
2022-12-18T01:36:42.580Z,98.43
2022-12-18T01:37:42.633Z,98.74
2022-12-18T01:38:42.560Z,98.85
2022-12-18T01:39:42.547Z,98.85
2022-12-18T01:40:42.538Z,98.64
2022-12-18T01:41:42.536Z,98.74
2022-12-18T01:42:42.543Z,98.85
2022-12-18T01:43:42.515Z,98.96
2022-12-18T01:44:42.490Z,99.17
2022-12-18T01:45:42.568Z,99.27
2022-12-18T01:46:42.496Z,99.27
2022-12-18T01:47:42.486Z,99.27
2022-12-18T01:48:42.464Z,99.17
2022-12-18T01:49:42.449Z,99.27
2022-12-18T01:50:42.435Z,99.27
2022-12-18T01:51:42.450Z,99.38
2022-12-18T01:52:42.419Z,99.38
2022-12-18T01:53:42.412Z,99.27
2022-12-18T01:54:42.408Z,99.17
2022-12-18T01:55:42.394Z,98.96
2022-12-18T01:56:42.551Z,98.81
2022-12-18T01:57:42.386Z,98.64
2022-12-18T01:58:42.361Z,98.43
2022-12-18T01:59:42.351Z,98.22
2022-12-18T02:00:42.375Z,98.11
2022-12-18T02:01:42.493Z,98.22
2022-12-18T02:02:42.436Z,98.22
2022-12-18T02:03:42.475Z,98.11
2022-12-18T02:04:47.795Z,98.22
2022-12-18T02:05:42.327Z,98.32
2022-12-18T02:06:42.336Z,98.47
2022-12-18T02:07:42.281Z,98.58
2022-12-18T02:08:42.270Z,98.68
2022-12-18T02:09:42.255Z,98.79
2022-12-18T02:10:42.246Z,98.85
2022-12-18T02:11:42.252Z,98.96
2022-12-18T02:12:42.223Z,98.96
2022-12-18T02:13:42.239Z,98.96
2022-12-18T02:14:42.263Z,98.90
2022-12-18T02:15:42.224Z,98.90
2022-12-18T02:16:42.270Z,99.00
2022-12-18T02:17:42.237Z,99.11
2022-12-18T02:18:42.169Z,99.32
2022-12-18T02:19:42.162Z,99.43
2022-12-18T02:20:42.166Z,99.43
2022-12-18T02:21:42.166Z,99.53
2022-12-18T02:22:42.127Z,99.53
2022-12-18T02:23:42.313Z,99.64
2022-12-18T02:24:42.113Z,99.74
2022-12-18T02:25:42.110Z,99.74
2022-12-18T02:26:42.139Z,99.64
2022-12-18T02:27:42.080Z,99.53
2022-12-18T02:28:42.076Z,99.32
2022-12-18T02:29:42.062Z,99.21
2022-12-18T02:30:42.109Z,99.21
2022-12-18T02:31:42.053Z,99.37
2022-12-18T02:32:42.029Z,99.47
2022-12-18T02:33:42.253Z,99.47
2022-12-18T02:34:42.009Z,99.68
2022-12-18T02:35:42.004Z,99.79
2022-12-18T02:36:41.993Z,99.90
2022-12-18T02:37:41.986Z,99.99
2022-12-18T02:38:41.980Z,99.99
2022-12-18T02:39:41.962Z,99.99
2022-12-18T02:40:41.972Z,99.99
2022-12-18T02:41:41.960Z,99.99
2022-12-18T02:42:41.934Z,99.99
2022-12-18T02:43:42.047Z,99.99
2022-12-18T02:44:41.912Z,99.85
2022-12-18T02:45:41.969Z,99.74
2022-12-18T02:46:41.932Z,99.74
2022-12-18T02:47:41.890Z,99.64
2022-12-18T02:48:41.880Z,99.53
2022-12-18T02:49:41.871Z,99.32
2022-12-18T02:50:41.899Z,99.21
2022-12-18T02:51:41.867Z,99.11
2022-12-18T02:52:41.907Z,99.11
2022-12-18T02:53:42.158Z,99.11
2022-12-18T02:54:41.822Z,98.90
2022-12-18T02:55:41.822Z,98.90
2022-12-18T02:56:41.807Z,98.90
2022-12-18T02:57:41.793Z,98.90
2022-12-18T02:58:41.789Z,98.90
2022-12-18T02:59:41.770Z,99.00
2022-12-18T03:00:41.764Z,99.00
2022-12-18T03:01:41.879Z,98.96
2022-12-18T03:02:41.949Z,98.96
2022-12-18T03:03:42.182Z,98.85
2022-12-18T03:04:41.733Z,98.64
2022-12-18T03:05:41.720Z,98.54
2022-12-18T03:06:41.722Z,98.43
2022-12-18T03:07:41.764Z,98.22
2022-12-18T03:08:41.676Z,97.79
2022-12-18T03:09:41.678Z,97.47
2022-12-18T03:10:41.674Z,97.26
2022-12-18T03:11:41.693Z,97.05
2022-12-18T03:12:41.636Z,97.05
2022-12-18T03:13:42.026Z,96.88
2022-12-18T03:14:41.622Z,97.09
2022-12-18T03:15:41.618Z,97.20
2022-12-18T03:16:41.680Z,97.67
2022-12-18T03:17:41.595Z,97.99
2022-12-18T03:18:41.583Z,98.30
2022-12-18T03:19:41.579Z,98.62
2022-12-18T03:20:41.559Z,98.94
2022-12-18T03:21:41.581Z,99.15
2022-12-18T03:22:41.554Z,99.26
2022-12-18T03:23:41.848Z,99.26
2022-12-18T03:24:41.526Z,99.26
2022-12-18T03:25:41.523Z,99.15
2022-12-18T03:26:41.510Z,99.11
2022-12-18T03:27:41.533Z,99.21
2022-12-18T03:28:41.489Z,99.11
2022-12-18T03:29:41.486Z,98.68
2022-12-18T03:30:41.512Z,98.36
2022-12-18T03:31:41.464Z,98.16
2022-12-18T03:32:41.471Z,98.05
2022-12-18T03:33:41.865Z,97.83
2022-12-18T03:34:41.438Z,97.88
2022-12-18T03:35:41.426Z,97.94
2022-12-18T03:36:41.413Z,97.99
2022-12-18T03:37:41.465Z,97.99
2022-12-18T03:38:41.399Z,97.99
2022-12-18T03:39:41.388Z,97.99
2022-12-18T03:40:41.385Z,97.99
2022-12-18T03:41:41.367Z,98.09
2022-12-18T03:42:41.367Z,98.09
2022-12-18T03:43:41.940Z,98.30
2022-12-18T03:44:41.338Z,98.41
2022-12-18T03:45:41.367Z,98.20
2022-12-18T03:46:41.342Z,97.99
2022-12-18T03:47:41.333Z,97.88
2022-12-18T03:48:41.326Z,97.94
2022-12-18T03:49:41.298Z,98.05
2022-12-18T03:50:41.273Z,98.16
2022-12-18T03:51:41.290Z,97.94
2022-12-18T03:52:41.267Z,97.52
2022-12-18T03:53:41.800Z,96.88
2022-12-18T03:54:41.234Z,96.46
2022-12-18T03:55:41.230Z,96.46
2022-12-18T03:56:41.239Z,96.61
2022-12-18T03:57:41.281Z,96.82
2022-12-18T03:58:41.597Z,97.03
2022-12-18T03:59:41.193Z,97.14
2022-12-18T04:00:41.188Z,97.29
2022-12-18T04:01:41.253Z,97.50
2022-12-18T04:02:41.320Z,97.71
2022-12-18T04:03:41.510Z,97.92
2022-12-18T04:04:41.144Z,98.14
2022-12-18T04:05:41.150Z,98.35
2022-12-18T04:06:41.132Z,98.35
2022-12-18T04:07:41.146Z,98.46
2022-12-18T04:08:41.102Z,98.56
2022-12-18T04:09:41.111Z,98.56
2022-12-18T04:10:41.080Z,98.56
2022-12-18T04:11:41.076Z,98.56
2022-12-18T04:12:41.091Z,98.52
2022-12-18T04:13:41.579Z,98.20
2022-12-18T04:14:41.043Z,97.99
2022-12-18T04:15:41.064Z,97.99
2022-12-18T04:16:41.053Z,97.77
2022-12-18T04:17:41.109Z,97.67
2022-12-18T04:18:41.011Z,97.67
2022-12-18T04:19:41.021Z,97.67
2022-12-18T04:20:40.999Z,97.67
2022-12-18T04:21:40.992Z,97.56
2022-12-18T04:22:40.983Z,97.45
2022-12-18T04:23:41.463Z,97.45
2022-12-18T04:24:40.954Z,97.39
2022-12-18T04:25:40.944Z,97.39
2022-12-18T04:26:40.937Z,97.50
2022-12-18T04:27:40.984Z,97.50
2022-12-18T04:28:40.914Z,97.50
2022-12-18T04:29:40.904Z,97.71
2022-12-18T04:30:41.047Z,97.92
2022-12-18T04:31:40.900Z,98.03
2022-12-18T04:32:40.911Z,98.03
2022-12-18T04:33:41.285Z,98.18
2022-12-18T04:34:40.871Z,98.03
2022-12-18T04:35:40.866Z,97.97
2022-12-18T04:36:40.842Z,97.97
2022-12-18T04:37:40.842Z,97.86
2022-12-18T04:38:40.836Z,97.86
2022-12-18T04:39:40.827Z,97.97
2022-12-18T04:40:41.419Z,97.97
2022-12-18T04:41:40.799Z,97.92
2022-12-18T04:42:40.838Z,98.03
2022-12-18T04:43:41.275Z,98.03
2022-12-18T04:44:40.760Z,98.03
2022-12-18T04:45:40.762Z,97.92
2022-12-18T04:46:40.854Z,98.03
2022-12-18T04:47:40.785Z,98.03
2022-12-18T04:48:40.720Z,98.14
2022-12-18T04:49:40.733Z,98.24
2022-12-18T04:50:40.726Z,98.24
2022-12-18T04:51:40.695Z,98.03
2022-12-18T04:52:40.690Z,97.92
2022-12-18T04:53:41.309Z,97.81
2022-12-18T04:54:40.666Z,97.92
2022-12-18T04:55:40.665Z,97.97
2022-12-18T04:56:40.645Z,98.07
2022-12-18T04:57:40.636Z,98.14
2022-12-18T04:58:40.654Z,98.24
2022-12-18T04:59:40.627Z,98.24
2022-12-18T05:00:40.637Z,98.24
2022-12-18T05:01:40.718Z,98.24
2022-12-18T05:02:40.767Z,98.14
2022-12-18T05:03:40.883Z,98.03
2022-12-18T05:04:40.568Z,97.71
2022-12-18T05:05:40.551Z,97.61
2022-12-18T05:06:40.552Z,97.61
2022-12-18T05:07:40.581Z,97.56
2022-12-18T05:08:40.571Z,97.50
2022-12-18T05:09:40.536Z,97.50
2022-12-18T05:10:40.536Z,97.61
2022-12-18T05:11:40.533Z,97.71
2022-12-18T05:12:40.532Z,97.92
2022-12-18T05:13:41.122Z,98.03
2022-12-18T05:14:40.474Z,98.03
2022-12-18T05:15:40.541Z,98.14
2022-12-18T05:16:40.481Z,97.92
2022-12-18T05:17:40.437Z,97.92
2022-12-18T05:18:40.458Z,97.92
2022-12-18T05:19:40.426Z,97.88
2022-12-18T05:20:40.427Z,97.88
2022-12-18T05:21:40.421Z,97.88
2022-12-18T05:22:40.407Z,98.03
2022-12-18T05:23:41.342Z,98.14
2022-12-18T05:24:40.374Z,98.24
2022-12-18T05:25:40.372Z,98.35
2022-12-18T05:26:40.356Z,98.56
2022-12-18T05:27:40.345Z,98.67
2022-12-18T05:28:40.355Z,98.62
2022-12-18T05:29:40.324Z,98.62
2022-12-18T05:30:40.318Z,98.62
2022-12-18T05:31:40.418Z,98.73
2022-12-18T05:32:40.322Z,98.94
2022-12-18T05:33:40.618Z,98.94
2022-12-18T05:34:40.280Z,98.94
2022-12-18T05:35:40.264Z,98.83
2022-12-18T05:36:40.275Z,98.62
2022-12-18T05:37:43.297Z,98.41
2022-12-18T05:38:40.250Z,98.30
2022-12-18T05:39:40.238Z,98.30
2022-12-18T05:40:40.229Z,98.41
2022-12-18T05:41:40.209Z,98.52
2022-12-18T05:42:40.221Z,98.73
2022-12-18T05:43:40.696Z,98.83
2022-12-18T05:44:40.184Z,98.94
2022-12-18T05:45:40.184Z,99.05
2022-12-18T05:46:40.213Z,99.05
2022-12-18T05:47:40.172Z,99.05
2022-12-18T05:48:40.168Z,99.05
2022-12-18T05:49:40.143Z,98.94
2022-12-18T05:50:40.151Z,98.94
2022-12-18T05:51:40.112Z,99.05
2022-12-18T05:52:40.149Z,99.05
2022-12-18T05:53:40.659Z,99.15
2022-12-18T05:54:40.090Z,99.15
2022-12-18T05:55:40.076Z,99.15
2022-12-18T05:56:44.155Z,99.11
2022-12-18T05:57:40.111Z,99.00
2022-12-18T05:58:40.207Z,98.90
2022-12-18T05:59:40.033Z,98.79
2022-12-18T06:00:40.034Z,98.58
2022-12-18T06:01:40.111Z,98.58
2022-12-18T06:02:40.091Z,98.47
2022-12-18T06:03:40.553Z,98.47
2022-12-18T06:04:40.010Z,98.47
2022-12-18T06:05:39.979Z,98.26
2022-12-18T06:06:39.990Z,98.16
2022-12-18T06:07:39.979Z,98.16
2022-12-18T06:08:45.864Z,98.26
2022-12-18T06:09:39.945Z,98.36
2022-12-18T06:10:39.940Z,98.47
2022-12-18T06:11:39.922Z,98.36
2022-12-18T06:12:39.936Z,98.36
2022-12-18T06:13:40.454Z,98.36
2022-12-18T06:14:39.906Z,98.05
2022-12-18T06:15:39.914Z,98.09
2022-12-18T06:16:39.965Z,98.20
2022-12-18T06:17:39.904Z,98.41
2022-12-18T06:18:39.855Z,98.62
2022-12-18T06:19:39.857Z,98.73
2022-12-18T06:20:39.847Z,98.73
2022-12-18T06:21:39.823Z,98.88
2022-12-18T06:22:39.828Z,98.94
2022-12-18T06:23:40.183Z,99.15
2022-12-18T06:24:39.794Z,99.15
2022-12-18T06:25:39.801Z,99.19
2022-12-18T06:26:39.776Z,99.26
2022-12-18T06:27:39.795Z,99.37
2022-12-18T06:28:39.756Z,99.37
2022-12-18T06:29:39.755Z,99.47
2022-12-18T06:30:39.745Z,99.47
2022-12-18T06:31:39.808Z,99.47
2022-12-18T06:32:39.740Z,99.37
2022-12-18T06:33:40.062Z,99.37
2022-12-18T06:34:39.701Z,99.37
2022-12-18T06:35:39.703Z,99.26
2022-12-18T06:36:39.635Z,99.15
2022-12-18T06:37:39.689Z,99.05
2022-12-18T06:38:40.074Z,99.05
2022-12-18T06:39:39.647Z,99.05
2022-12-18T06:40:39.641Z,99.05
2022-12-18T06:41:39.637Z,98.83
2022-12-18T06:42:39.668Z,98.73
2022-12-18T06:43:40.044Z,98.52
2022-12-18T06:44:39.607Z,98.52
2022-12-18T06:45:39.653Z,98.62
2022-12-18T06:46:39.542Z,98.62
2022-12-18T06:47:39.540Z,98.62
2022-12-18T06:48:39.543Z,98.52
2022-12-18T06:49:39.518Z,98.52
2022-12-18T06:50:39.513Z,98.62
2022-12-18T06:51:39.509Z,98.73
2022-12-18T06:52:39.524Z,98.73
2022-12-18T06:53:39.811Z,98.83
2022-12-18T06:54:39.505Z,98.73
2022-12-18T06:55:39.447Z,98.62
2022-12-18T06:56:39.445Z,98.73
2022-12-18T06:57:39.471Z,98.73
2022-12-18T06:58:39.430Z,98.79
2022-12-18T06:59:39.406Z,98.79
2022-12-18T07:00:39.419Z,98.79
2022-12-18T07:01:39.626Z,98.90
2022-12-18T07:02:39.541Z,99.00
2022-12-18T07:03:39.886Z,98.90
2022-12-18T07:04:39.383Z,98.58
2022-12-18T07:05:39.349Z,98.26
2022-12-18T07:06:39.361Z,98.16
2022-12-18T07:07:39.337Z,98.16
2022-12-18T07:08:39.350Z,98.16
2022-12-18T07:09:39.337Z,98.26
2022-12-18T07:10:44.748Z,98.16
2022-12-18T07:11:39.316Z,98.05
2022-12-18T07:12:39.293Z,98.05
2022-12-18T07:13:39.573Z,97.94
2022-12-18T07:14:39.276Z,97.90
2022-12-18T07:15:39.270Z,97.90
2022-12-18T07:16:39.260Z,97.69
2022-12-18T07:17:39.241Z,97.26
2022-12-18T07:18:39.263Z,97.09
2022-12-18T07:19:39.220Z,97.09
2022-12-18T07:20:39.244Z,97.09
2022-12-18T07:21:39.223Z,96.98
2022-12-18T07:22:39.223Z,96.98
2022-12-18T07:23:39.456Z,97.20
2022-12-18T07:24:39.180Z,97.26
2022-12-18T07:25:39.160Z,97.37
2022-12-18T07:26:39.152Z,97.37
2022-12-18T07:27:39.162Z,97.37
2022-12-18T07:28:39.166Z,97.26
2022-12-18T07:29:39.120Z,97.16
2022-12-18T07:30:39.114Z,97.16
2022-12-18T07:31:39.173Z,97.16
2022-12-18T07:32:39.104Z,96.94
2022-12-18T07:33:39.577Z,96.84
2022-12-18T07:34:39.104Z,96.84
2022-12-18T07:35:39.091Z,96.84
2022-12-18T07:36:39.066Z,96.94
2022-12-18T07:37:39.060Z,96.90
2022-12-18T07:38:39.068Z,96.90
2022-12-18T07:39:39.079Z,96.73
2022-12-18T07:40:39.034Z,96.62
2022-12-18T07:41:43.745Z,96.62
2022-12-18T07:42:39.022Z,96.84
2022-12-18T07:43:39.441Z,96.84
2022-12-18T07:44:39.017Z,96.94
2022-12-18T07:45:39.017Z,97.01
2022-12-18T07:46:39.002Z,97.01
2022-12-18T07:47:38.950Z,97.01
2022-12-18T07:48:38.967Z,97.11
2022-12-18T07:49:38.936Z,97.11
2022-12-18T07:50:38.921Z,97.11
2022-12-18T07:51:38.917Z,96.90
2022-12-18T07:52:38.922Z,96.37
2022-12-18T07:53:39.427Z,96.26
2022-12-18T07:54:38.912Z,96.05
2022-12-18T07:56:05.361Z,95.84
2022-12-18T07:56:38.874Z,95.73
2022-12-18T07:57:50.733Z,95.99
2022-12-18T07:58:38.899Z,96.20
2022-12-18T07:59:38.862Z,96.42
2022-12-18T08:00:38.841Z,96.62
2022-12-18T08:01:38.935Z,96.73
2022-12-18T08:02:38.919Z,96.80
2022-12-18T08:03:39.177Z,96.80
2022-12-18T08:04:38.798Z,96.80
2022-12-18T08:05:38.791Z,96.58
2022-12-18T08:06:38.786Z,96.48
2022-12-18T08:07:38.767Z,96.48
2022-12-18T08:08:38.794Z,96.26
2022-12-18T08:09:38.766Z,95.95
2022-12-18T08:10:38.745Z,95.53
2022-12-18T08:11:38.716Z,95.46
2022-12-18T08:12:38.720Z,95.67
2022-12-18T08:13:39.179Z,95.99
2022-12-18T08:14:38.711Z,96.20
2022-12-18T08:15:38.688Z,96.31
2022-12-18T08:16:38.708Z,96.20
2022-12-18T08:17:38.675Z,96.42
2022-12-18T08:18:38.679Z,96.62
2022-12-18T08:19:38.695Z,96.73
2022-12-18T08:20:38.651Z,96.73
2022-12-18T08:21:38.623Z,96.84
2022-12-18T08:22:38.652Z,96.80
2022-12-18T08:23:42.545Z,96.69
2022-12-18T08:24:38.625Z,96.58
2022-12-18T08:25:38.612Z,96.58
2022-12-18T08:26:38.588Z,96.48
2022-12-18T08:27:38.571Z,96.16
2022-12-18T08:28:38.582Z,95.95
2022-12-18T08:29:38.573Z,95.73
2022-12-18T08:30:38.607Z,95.73
2022-12-18T08:31:38.618Z,95.95
2022-12-18T08:32:38.573Z,96.05
2022-12-18T08:33:39.057Z,96.26
2022-12-18T08:34:38.540Z,96.37
2022-12-18T08:35:44.066Z,96.37
2022-12-18T08:36:38.505Z,96.48
2022-12-18T08:37:38.474Z,96.58
2022-12-18T08:38:38.516Z,96.48
2022-12-18T08:39:38.454Z,96.48
2022-12-18T08:40:38.481Z,96.48
2022-12-18T08:41:38.444Z,96.48
2022-12-18T08:42:38.422Z,96.69
2022-12-18T08:43:38.870Z,96.80
2022-12-18T08:44:38.423Z,96.80
2022-12-18T08:45:38.404Z,96.80
2022-12-18T08:46:38.442Z,96.80
2022-12-18T08:47:38.402Z,96.80
2022-12-18T08:48:38.470Z,96.80
2022-12-18T08:49:38.356Z,96.69
2022-12-18T08:50:38.356Z,96.69
2022-12-18T08:51:38.356Z,96.64
2022-12-18T08:52:38.333Z,96.75
2022-12-18T08:53:38.848Z,96.75
2022-12-18T08:54:38.325Z,96.64
2022-12-18T08:55:38.319Z,96.64
2022-12-18T08:56:38.296Z,96.44
2022-12-18T08:57:38.296Z,96.18
2022-12-18T08:58:38.298Z,96.01
2022-12-18T08:59:38.295Z,95.80
2022-12-18T09:00:38.254Z,95.76
2022-12-18T09:01:38.320Z,95.76
2022-12-18T09:02:38.324Z,95.86
2022-12-18T09:03:38.666Z,95.76
2022-12-18T09:04:38.235Z,95.65
2022-12-18T09:05:38.205Z,95.54
2022-12-18T09:06:38.198Z,95.54
2022-12-18T09:07:38.190Z,95.54
2022-12-18T09:08:38.505Z,95.61
2022-12-18T09:09:38.185Z,95.50
2022-12-18T09:10:43.176Z,95.39
2022-12-18T09:11:38.153Z,95.39
2022-12-18T09:12:38.136Z,95.39
2022-12-18T09:13:38.540Z,95.39
2022-12-18T09:14:38.114Z,95.29
2022-12-18T09:15:38.114Z,95.18
2022-12-18T09:16:38.144Z,94.65
2022-12-18T09:17:38.089Z,94.55
2022-12-18T09:18:38.557Z,94.65
2022-12-18T09:19:38.085Z,94.45
2022-12-18T09:20:38.060Z,94.55
2022-12-18T09:21:38.071Z,94.55
2022-12-18T09:22:38.057Z,94.65
2022-12-18T09:23:38.065Z,94.76
2022-12-18T09:24:38.024Z,94.65
2022-12-18T09:25:38.021Z,94.65
2022-12-18T09:26:38.122Z,94.51
2022-12-18T09:27:38.016Z,94.29
2022-12-18T09:28:38.445Z,93.98
2022-12-18T09:29:37.992Z,93.77
2022-12-18T09:30:38.004Z,93.77
2022-12-18T09:31:38.024Z,93.77
2022-12-18T09:32:37.937Z,93.77
2022-12-18T09:33:37.958Z,93.77
2022-12-18T09:34:37.920Z,93.77
2022-12-18T09:35:37.914Z,93.73
2022-12-18T09:36:37.911Z,93.73
2022-12-18T09:37:37.897Z,93.73
2022-12-18T09:38:38.235Z,93.73
2022-12-18T09:39:37.878Z,93.83
2022-12-18T09:40:37.877Z,94.04
2022-12-18T09:41:37.873Z,94.04
2022-12-18T09:42:37.856Z,94.04
2022-12-18T09:43:37.875Z,94.10
2022-12-18T09:44:44.705Z,94.21
2022-12-18T09:45:37.851Z,94.21
2022-12-18T09:46:37.862Z,94.21
2022-12-18T09:47:37.824Z,94.21
2022-12-18T09:48:38.187Z,94.21
2022-12-18T09:49:37.817Z,94.21
2022-12-18T09:50:37.763Z,94.10
2022-12-18T09:51:37.777Z,94.21
2022-12-18T09:52:37.764Z,94.32
2022-12-18T09:53:37.780Z,94.21
2022-12-18T09:54:37.720Z,94.10
2022-12-18T09:55:37.801Z,94.21
2022-12-18T09:56:37.711Z,94.42
2022-12-18T09:57:37.712Z,94.74
2022-12-18T09:58:38.186Z,94.95
2022-12-18T09:59:37.690Z,95.06
2022-12-18T10:00:37.697Z,95.06
2022-12-18T10:01:44.020Z,95.26
2022-12-18T10:02:37.803Z,95.58
2022-12-18T10:03:37.669Z,95.69
2022-12-18T10:04:37.801Z,95.79
2022-12-18T10:05:37.663Z,95.79
2022-12-18T10:06:37.637Z,95.79
2022-12-18T10:07:37.615Z,96.00
2022-12-18T10:08:37.889Z,96.11
2022-12-18T10:09:37.640Z,96.11
2022-12-18T10:10:37.602Z,95.90
2022-12-18T10:11:37.574Z,96.00
2022-12-18T10:12:37.563Z,96.22
2022-12-18T10:13:37.654Z,96.22
2022-12-18T10:14:37.557Z,96.22
2022-12-18T10:15:37.637Z,96.32
2022-12-18T10:16:37.512Z,96.32
2022-12-18T10:17:37.519Z,96.28
2022-12-18T10:18:37.740Z,96.28
2022-12-18T10:19:37.490Z,96.17
2022-12-18T10:20:37.476Z,96.17
2022-12-18T10:21:37.484Z,95.96
2022-12-18T10:22:37.460Z,95.86
2022-12-18T10:23:37.476Z,95.75
2022-12-18T10:24:37.444Z,95.75
2022-12-18T10:25:37.432Z,95.75
2022-12-18T10:26:37.420Z,95.86
2022-12-18T10:27:37.414Z,96.07
2022-12-18T10:28:37.774Z,96.28
2022-12-18T10:29:37.394Z,96.49
2022-12-18T10:30:37.383Z,96.81
2022-12-18T10:31:37.474Z,96.91
2022-12-18T10:32:37.358Z,97.02
2022-12-18T10:33:37.359Z,97.13
2022-12-18T10:34:37.393Z,97.23
2022-12-18T10:35:37.334Z,97.23
2022-12-18T10:36:37.323Z,97.08
2022-12-18T10:37:37.322Z,97.08
2022-12-18T10:38:37.448Z,97.08
2022-12-18T10:39:37.313Z,96.97
2022-12-18T10:40:37.316Z,97.08
2022-12-18T10:41:37.277Z,96.97
2022-12-18T10:42:37.344Z,96.97
2022-12-18T10:43:37.262Z,96.97
2022-12-18T10:44:37.309Z,96.97
2022-12-18T10:45:37.292Z,96.87
2022-12-18T10:46:37.302Z,96.77
2022-12-18T10:47:37.216Z,96.77
2022-12-18T10:48:37.515Z,96.61
2022-12-18T10:49:37.215Z,96.51
2022-12-18T10:51:09.138Z,96.41
2022-12-18T10:51:37.192Z,95.98
2022-12-18T10:52:42.043Z,95.87
2022-12-18T10:53:37.182Z,95.87
2022-12-18T10:54:37.170Z,95.87
2022-12-18T10:55:37.160Z,95.77
2022-12-18T10:56:37.128Z,95.67
2022-12-18T10:57:37.128Z,95.56
2022-12-18T10:58:37.116Z,95.45
2022-12-18T10:59:37.142Z,95.35
2022-12-18T11:00:37.107Z,95.35
2022-12-18T11:01:37.199Z,95.24
2022-12-18T11:02:37.319Z,95.14
2022-12-18T11:03:37.179Z,95.24
2022-12-18T11:04:37.080Z,95.24
2022-12-18T11:05:37.054Z,95.35
2022-12-18T11:06:37.037Z,95.56
2022-12-18T11:07:37.033Z,95.77
2022-12-18T11:08:37.044Z,95.87
2022-12-18T11:09:37.060Z,95.77
2022-12-18T11:10:37.001Z,95.92
2022-12-18T11:11:37.000Z,96.09
2022-12-18T11:12:36.999Z,96.23
2022-12-18T11:13:36.967Z,96.34
2022-12-18T11:14:38.336Z,96.41
2022-12-18T11:15:37.040Z,96.30
2022-12-18T11:16:37.039Z,96.30
2022-12-18T11:17:36.937Z,96.19
2022-12-18T11:18:36.945Z,96.09
2022-12-18T11:19:36.933Z,95.77
2022-12-18T11:20:36.946Z,95.45
2022-12-18T11:21:36.918Z,95.35
2022-12-18T11:22:36.884Z,95.35
2022-12-18T11:23:36.911Z,95.35
2022-12-18T11:24:36.884Z,95.35
2022-12-18T11:25:36.851Z,95.24
2022-12-18T11:26:36.853Z,94.93
2022-12-18T11:27:36.829Z,94.93
2022-12-18T11:28:36.841Z,95.03
2022-12-18T11:29:40.637Z,95.14
2022-12-18T11:30:36.851Z,95.35
2022-12-18T11:31:36.931Z,95.35
2022-12-18T11:32:36.791Z,95.45
2022-12-18T11:33:36.785Z,95.45
2022-12-18T11:34:36.788Z,95.45
2022-12-18T11:35:36.781Z,95.56
2022-12-18T11:36:36.735Z,95.67
2022-12-18T11:37:36.766Z,95.45
2022-12-18T11:38:36.734Z,95.50
2022-12-18T11:39:36.768Z,95.81
2022-12-18T11:40:41.094Z,96.13
2022-12-18T11:41:36.698Z,96.45
2022-12-18T11:42:36.704Z,96.66
2022-12-18T11:43:36.696Z,96.91
2022-12-18T11:44:36.699Z,96.97
2022-12-18T11:45:36.671Z,97.19
2022-12-18T11:46:36.669Z,97.08
2022-12-18T11:47:36.638Z,96.97
2022-12-18T11:48:36.639Z,96.77
2022-12-18T11:49:36.682Z,96.66
2022-12-18T11:50:36.622Z,96.45
2022-12-18T11:51:36.598Z,96.23
2022-12-18T11:52:36.595Z,96.13
2022-12-18T11:53:36.593Z,96.34
2022-12-18T11:54:36.604Z,96.34
2022-12-18T11:55:36.585Z,96.34
2022-12-18T11:56:36.547Z,96.34
2022-12-18T11:57:36.588Z,96.34
2022-12-18T11:58:36.572Z,96.45
2022-12-18T11:59:36.577Z,96.41
2022-12-18T12:00:36.527Z,96.30
2022-12-18T12:01:42.100Z,96.09
2022-12-18T12:02:36.720Z,96.03
2022-12-18T12:03:36.606Z,96.13
2022-12-18T12:04:36.581Z,96.34
2022-12-18T12:05:36.468Z,96.34
2022-12-18T12:06:36.458Z,96.45
2022-12-18T12:07:36.469Z,96.55
2022-12-18T12:08:36.431Z,96.51
2022-12-18T12:09:36.457Z,96.41
2022-12-18T12:10:36.413Z,96.09
2022-12-18T12:11:36.480Z,95.87
2022-12-18T12:12:36.389Z,95.56
2022-12-18T12:13:36.408Z,95.60
2022-12-18T12:14:36.420Z,95.77
2022-12-18T12:15:36.362Z,95.98
2022-12-18T12:16:36.422Z,95.98
2022-12-18T12:17:36.355Z,95.87
2022-12-18T12:18:36.337Z,95.67
2022-12-18T12:19:36.394Z,95.45
2022-12-18T12:20:36.992Z,95.45
2022-12-18T12:21:36.334Z,95.45
2022-12-18T12:22:36.296Z,95.67
2022-12-18T12:23:36.295Z,95.77
2022-12-18T12:24:36.310Z,95.87
2022-12-18T12:25:36.318Z,95.87
2022-12-18T12:26:36.302Z,95.67
2022-12-18T12:27:36.282Z,95.14
2022-12-18T12:28:36.245Z,95.14
2022-12-18T12:29:36.292Z,95.14
2022-12-18T12:30:36.259Z,95.35
2022-12-18T12:31:36.235Z,95.45
2022-12-18T12:32:36.205Z,95.56
2022-12-18T12:33:36.211Z,95.67
2022-12-18T12:34:36.210Z,95.77
2022-12-18T12:35:36.190Z,95.77
2022-12-18T12:36:36.200Z,95.77
2022-12-18T12:37:36.184Z,95.87
2022-12-18T12:38:36.145Z,95.77
2022-12-18T12:39:36.224Z,95.77
2022-12-18T12:40:57.074Z,95.77
2022-12-18T12:41:36.141Z,95.77
2022-12-18T12:42:36.107Z,95.77
2022-12-18T12:43:36.140Z,95.56
2022-12-18T12:44:36.110Z,95.45
2022-12-18T12:45:36.122Z,95.35
2022-12-18T12:46:36.066Z,95.35
2022-12-18T12:47:36.083Z,95.41
2022-12-18T12:48:36.046Z,95.41
2022-12-18T12:49:40.628Z,95.51
2022-12-18T12:50:36.044Z,95.41
2022-12-18T12:51:36.018Z,95.20
2022-12-18T12:52:36.024Z,95.09